createdAt,value
2019-03-27T00:01:25.998Z,7.03
2019-03-27T00:03:55.932Z,7.23
2019-03-27T00:06:44.656Z,7.27
2019-03-27T00:09:14.574Z,6.73
2019-03-27T00:11:44.798Z,6.73
2019-03-27T00:14:15.628Z,7.70
2019-03-27T00:16:45.480Z,7.30
2019-03-27T00:19:15.460Z,7.37
2019-03-27T00:21:45.532Z,8.00
2019-03-27T00:24:15.574Z,7.63
2019-03-27T00:26:45.539Z,7.33
2019-03-27T00:29:15.586Z,7.67
2019-03-27T00:31:45.932Z,7.50
2019-03-27T00:34:15.872Z,7.80
2019-03-27T00:36:45.844Z,7.10
2019-03-27T00:39:15.701Z,7.47
2019-03-27T00:41:45.673Z,7.03
2019-03-27T00:44:15.662Z,6.20
2019-03-27T00:46:45.624Z,7.53
2019-03-27T00:49:15.510Z,7.20
2019-03-27T00:51:45.366Z,7.47
2019-03-27T00:54:15.304Z,7.97
2019-03-27T00:56:45.203Z,6.97
2019-03-27T00:59:15.172Z,7.10
2019-03-27T01:01:45.019Z,8.27
2019-03-27T01:04:15.084Z,7.40
2019-03-27T01:06:45.021Z,7.40
2019-03-27T01:09:15.011Z,7.60
2019-03-27T01:11:44.930Z,7.80
2019-03-27T01:14:14.808Z,7.93
2019-03-27T01:16:44.731Z,8.07
2019-03-27T01:19:14.652Z,8.17
2019-03-27T01:21:44.535Z,7.73
2019-03-27T01:24:14.785Z,7.30
2019-03-27T01:26:44.756Z,8.13
2019-03-27T01:29:14.594Z,6.93
2019-03-27T01:31:44.694Z,8.43
2019-03-27T01:34:14.598Z,8.73
2019-03-27T01:36:44.599Z,8.43
2019-03-27T01:39:14.451Z,8.00
2019-03-27T01:41:44.793Z,8.40
2019-03-27T01:44:14.944Z,8.80
2019-03-27T01:46:44.954Z,8.20
2019-03-27T01:49:14.925Z,8.10
2019-03-27T01:51:44.873Z,8.07
2019-03-27T01:54:14.820Z,8.70
2019-03-27T01:56:44.664Z,8.20
2019-03-27T01:59:14.824Z,7.57
2019-03-27T02:01:44.800Z,8.17
2019-03-27T02:04:14.724Z,9.13
2019-03-27T02:06:44.753Z,9.03
2019-03-27T02:09:14.621Z,8.40
2019-03-27T02:11:44.541Z,9.23
2019-03-27T02:14:14.871Z,8.63
2019-03-27T02:16:45.040Z,8.17
2019-03-27T02:19:14.983Z,8.70
2019-03-27T02:21:44.980Z,9.30
2019-03-27T02:24:15.349Z,8.87
2019-03-27T02:26:45.271Z,8.90
2019-03-27T02:29:15.232Z,8.70
2019-03-27T02:31:45.527Z,9.10
2019-03-27T02:34:15.440Z,8.90
2019-03-27T02:36:45.483Z,9.20
2019-03-27T02:39:15.507Z,9.07
2019-03-27T02:41:45.837Z,8.67
2019-03-27T02:44:15.777Z,9.37
2019-03-27T02:46:45.815Z,8.33
2019-03-27T02:49:15.783Z,9.50
2019-03-27T02:51:45.742Z,8.83
2019-03-27T02:54:15.687Z,8.77
2019-03-27T02:56:45.704Z,8.93
2019-03-27T02:59:15.673Z,8.80
2019-03-27T03:01:48.003Z,8.73
2019-03-27T03:04:17.362Z,9.50
2019-03-27T03:06:47.507Z,8.90
2019-03-27T03:09:17.453Z,9.17
2019-03-27T03:11:47.415Z,9.13
2019-03-27T03:14:17.378Z,9.03
2019-03-27T03:16:47.305Z,10.13
2019-03-27T03:19:17.213Z,9.90
2019-03-27T03:21:47.175Z,10.23
2019-03-27T03:24:35.968Z,10.63
2019-03-27T03:27:05.942Z,9.60
2019-03-27T03:29:35.992Z,10.67
2019-03-27T03:32:05.969Z,9.60
2019-03-27T03:34:35.939Z,10.00
2019-03-27T03:37:05.933Z,10.33
2019-03-27T03:39:35.922Z,9.77
2019-03-27T03:42:05.871Z,9.87
2019-03-27T03:44:35.753Z,9.80
2019-03-27T03:47:05.738Z,9.33
2019-03-27T03:49:35.640Z,9.03
2019-03-27T03:52:05.701Z,9.20
2019-03-27T03:54:35.632Z,9.67
2019-03-27T03:57:06.394Z,9.30
2019-03-27T03:59:38.958Z,9.27
2019-03-27T04:02:08.914Z,9.17
2019-03-27T04:04:40.514Z,9.23
2019-03-27T04:07:10.485Z,9.70
2019-03-27T04:09:40.466Z,8.80
2019-03-27T04:12:11.279Z,9.87
2019-03-27T04:14:41.169Z,8.63
2019-03-27T04:17:17.677Z,8.77
2019-03-27T04:19:42.683Z,9.80
2019-03-27T04:22:12.568Z,9.03
2019-03-27T04:24:42.530Z,8.50
2019-03-27T04:27:12.530Z,9.93
2019-03-27T04:29:43.283Z,9.17
2019-03-27T04:32:13.220Z,10.27
2019-03-27T04:34:46.913Z,10.50
2019-03-27T04:37:14.952Z,9.67
2019-03-27T04:39:44.906Z,9.73
2019-03-27T04:42:14.829Z,11.30
2019-03-27T04:44:44.782Z,10.97
2019-03-27T04:47:14.724Z,11.10
2019-03-27T04:49:44.700Z,10.43
2019-03-27T04:52:14.619Z,11.27
2019-03-27T04:54:44.609Z,10.70
2019-03-27T04:57:14.527Z,11.50
2019-03-27T04:59:44.475Z,11.67
2019-03-27T05:02:14.835Z,11.73
2019-03-27T05:04:45.089Z,12.10
2019-03-27T05:07:14.995Z,12.57
2019-03-27T05:09:44.917Z,12.73
2019-03-27T05:12:14.820Z,13.33
2019-03-27T05:14:44.813Z,11.93
2019-03-27T05:17:14.669Z,12.70
2019-03-27T05:19:44.676Z,12.60
2019-03-27T05:22:14.655Z,13.07
2019-03-27T05:24:44.523Z,13.47
2019-03-27T05:27:14.890Z,14.30
2019-03-27T05:29:44.797Z,15.30
2019-03-27T05:32:33.553Z,16.23
2019-03-27T05:35:03.735Z,16.40
2019-03-27T05:37:33.723Z,15.57
2019-03-27T05:40:03.621Z,16.57
2019-03-27T05:42:33.557Z,15.70
2019-03-27T05:45:03.472Z,16.50
2019-03-27T05:47:33.339Z,16.13
2019-03-27T05:50:03.341Z,16.47
2019-03-27T05:52:33.321Z,16.83
2019-03-27T05:55:03.608Z,16.77
2019-03-27T05:57:33.799Z,19.37
2019-03-27T06:00:03.690Z,18.03
2019-03-27T06:02:34.063Z,19.63
2019-03-27T06:05:04.044Z,19.17
2019-03-27T06:07:34.061Z,17.57
2019-03-27T06:10:04.067Z,18.37
2019-03-27T06:12:33.933Z,18.10
2019-03-27T06:15:04.009Z,18.30
2019-03-27T06:17:33.999Z,20.03
2019-03-27T06:20:04.063Z,20.30
2019-03-27T06:22:34.065Z,20.53
2019-03-27T06:25:04.879Z,22.43
2019-03-27T06:27:34.820Z,23.17
2019-03-27T06:30:06.079Z,22.20
2019-03-27T06:32:36.368Z,25.10
2019-03-27T06:35:07.631Z,24.67
2019-03-27T06:37:37.561Z,23.60
2019-03-27T06:40:07.894Z,24.43
2019-03-27T06:42:37.881Z,24.20
2019-03-27T06:45:08.709Z,22.50
2019-03-27T06:47:38.623Z,22.37
2019-03-27T06:50:09.025Z,23.20
2019-03-27T06:52:39.013Z,23.27
2019-03-27T06:55:09.643Z,21.93
2019-03-27T06:57:39.527Z,23.80
2019-03-27T07:00:11.458Z,23.33
2019-03-27T07:02:41.433Z,23.17
2019-03-27T07:05:12.209Z,22.20
2019-03-27T07:07:42.217Z,21.43
2019-03-27T07:10:12.629Z,21.53
2019-03-27T07:12:42.659Z,23.07
2019-03-27T07:15:12.817Z,20.63
2019-03-27T07:17:42.795Z,22.80
2019-03-27T07:20:12.715Z,20.63
2019-03-27T07:22:42.693Z,20.67
2019-03-27T07:25:13.099Z,19.23
2019-03-27T07:27:43.502Z,18.73
2019-03-27T07:30:13.581Z,17.53
2019-03-27T07:32:43.542Z,18.10
2019-03-27T07:35:13.559Z,17.17
2019-03-27T07:37:43.518Z,18.00
2019-03-27T07:40:13.527Z,15.13
2019-03-27T07:42:43.807Z,15.53
2019-03-27T07:45:14.107Z,16.63
2019-03-27T07:47:43.994Z,15.27
2019-03-27T07:50:15.072Z,15.73
2019-03-27T07:52:45.112Z,14.53
2019-03-27T07:55:19.750Z,14.50
2019-03-27T07:57:46.659Z,15.63
2019-03-27T08:00:17.890Z,15.67
2019-03-27T08:02:47.921Z,15.57
2019-03-27T08:05:18.025Z,17.13
2019-03-27T08:07:48.092Z,15.37
2019-03-27T08:10:18.082Z,14.73
2019-03-27T08:12:47.945Z,15.13
2019-03-27T08:15:18.218Z,16.27
2019-03-27T08:17:48.160Z,17.73
2019-03-27T08:20:18.463Z,16.47
2019-03-27T08:22:48.413Z,17.20
2019-03-27T08:25:18.398Z,17.93
2019-03-27T08:27:48.403Z,16.00
2019-03-27T08:30:18.647Z,15.97
2019-03-27T08:32:48.657Z,13.33
2019-03-27T08:35:19.245Z,13.03
2019-03-27T08:37:49.192Z,11.47
2019-03-27T08:40:19.818Z,10.97
2019-03-27T08:42:49.887Z,9.90
2019-03-27T08:45:19.867Z,9.80
2019-03-27T08:47:49.835Z,9.40
2019-03-27T08:50:21.009Z,8.43
2019-03-27T08:52:50.951Z,8.17
2019-03-27T08:55:21.067Z,8.63
2019-03-27T08:57:51.017Z,8.10
2019-03-27T09:00:28.177Z,7.27
2019-03-27T09:02:58.161Z,7.03
2019-03-27T09:05:28.339Z,7.73
2019-03-27T09:07:58.253Z,7.63
2019-03-27T09:10:28.192Z,6.57
2019-03-27T09:12:58.125Z,6.43
2019-03-27T09:15:28.073Z,6.23
2019-03-27T09:17:58.011Z,5.83
2019-03-27T09:20:28.032Z,5.63
2019-03-27T09:22:57.934Z,5.80
2019-03-27T09:25:28.734Z,5.40
2019-03-27T09:27:58.778Z,5.10
2019-03-27T09:30:30.449Z,5.20
2019-03-27T09:33:00.754Z,5.07
2019-03-27T09:35:30.767Z,4.60
2019-03-27T09:38:00.778Z,4.50
2019-03-27T09:40:30.684Z,4.77
2019-03-27T09:43:00.620Z,5.20
2019-03-27T09:45:30.569Z,4.20
2019-03-27T09:48:00.451Z,4.50
2019-03-27T09:50:30.397Z,4.70
2019-03-27T09:53:00.333Z,4.77
2019-03-27T09:55:30.243Z,4.70
2019-03-27T09:58:00.093Z,4.27
2019-03-27T10:01:04.674Z,4.08
2019-03-27T10:03:34.596Z,3.20
2019-03-27T10:06:04.516Z,3.97
2019-03-27T10:08:34.761Z,4.10
2019-03-27T10:11:05.138Z,3.40
2019-03-27T10:13:35.034Z,3.33
2019-03-27T10:16:04.908Z,3.73
2019-03-27T10:18:34.828Z,3.70
2019-03-27T10:21:04.872Z,3.80
2019-03-27T10:23:34.763Z,3.67
2019-03-27T10:26:04.745Z,3.87
2019-03-27T10:28:34.643Z,3.47
2019-03-27T10:31:04.940Z,3.80
2019-03-27T10:33:34.908Z,3.80
2019-03-27T10:36:05.176Z,3.23
2019-03-27T10:38:35.170Z,3.20
2019-03-27T10:41:05.153Z,3.00
2019-03-27T10:43:35.116Z,3.50
2019-03-27T10:46:04.971Z,3.40
2019-03-27T10:48:35.288Z,3.17
2019-03-27T10:51:05.142Z,3.53
2019-03-27T10:53:35.035Z,3.67
2019-03-27T10:56:05.002Z,3.00
2019-03-27T10:58:34.906Z,2.97
2019-03-27T11:01:07.276Z,2.70
2019-03-27T11:03:36.744Z,3.03
2019-03-27T11:06:06.632Z,2.67
2019-03-27T11:08:36.824Z,2.93
2019-03-27T11:11:06.856Z,2.73
2019-03-27T11:13:36.816Z,2.83
2019-03-27T11:16:06.974Z,3.13
2019-03-27T11:18:36.889Z,2.67
2019-03-27T11:21:06.805Z,2.50
2019-03-27T11:23:36.803Z,2.17
2019-03-27T11:26:06.670Z,2.83
2019-03-27T11:28:36.648Z,2.40
2019-03-27T11:31:06.660Z,3.07
2019-03-27T11:33:36.927Z,2.90
2019-03-27T11:36:07.212Z,2.60
2019-03-27T11:38:37.718Z,2.60
2019-03-27T11:41:07.944Z,2.50
2019-03-27T11:43:37.824Z,2.27
2019-03-27T11:46:07.688Z,2.40
2019-03-27T11:48:37.638Z,2.80
2019-03-27T11:51:07.618Z,2.30
2019-03-27T11:53:37.535Z,2.50
2019-03-27T11:56:08.171Z,2.30
2019-03-27T11:58:38.132Z,2.10
2019-03-27T12:01:08.048Z,2.23
2019-03-27T12:03:37.915Z,2.00
2019-03-27T12:06:07.811Z,1.80
2019-03-27T12:08:37.733Z,2.20
2019-03-27T12:11:07.628Z,2.57
2019-03-27T12:13:37.608Z,2.57
2019-03-27T12:16:07.572Z,2.03
2019-03-27T12:18:37.525Z,1.90
2019-03-27T12:21:07.414Z,2.20
2019-03-27T12:23:37.374Z,2.47
2019-03-27T12:26:07.266Z,2.60
2019-03-27T12:28:37.214Z,2.20
2019-03-27T12:31:07.257Z,2.30
2019-03-27T12:33:37.175Z,2.10
2019-03-27T12:36:07.098Z,2.67
2019-03-27T12:38:36.936Z,2.53
2019-03-27T12:41:07.122Z,2.20
2019-03-27T12:43:38.000Z,1.73
2019-03-27T12:46:07.945Z,2.70
2019-03-27T12:48:37.846Z,2.07
2019-03-27T12:51:13.055Z,2.10
2019-03-27T12:53:39.308Z,2.60
2019-03-27T12:56:09.260Z,2.33
2019-03-27T12:58:39.363Z,2.17
2019-03-27T13:01:09.298Z,2.30
2019-03-27T13:03:39.228Z,2.60
2019-03-27T13:06:09.090Z,2.73
2019-03-27T13:08:39.035Z,2.90
2019-03-27T13:11:08.996Z,3.23
2019-03-27T13:13:38.886Z,3.53
2019-03-27T13:16:08.824Z,2.87
2019-03-27T13:18:38.712Z,3.43
2019-03-27T13:21:08.632Z,2.70
2019-03-27T13:23:38.819Z,2.90
2019-03-27T13:26:08.763Z,3.40
2019-03-27T13:28:48.818Z,3.30
2019-03-27T13:31:10.304Z,3.40
2019-03-27T13:33:40.616Z,3.53
2019-03-27T13:36:10.556Z,3.20
2019-03-27T13:38:40.525Z,3.47
2019-03-27T13:41:10.480Z,3.97
2019-03-27T13:43:40.416Z,4.00
2019-03-27T13:46:10.376Z,4.20
2019-03-27T13:48:40.294Z,4.20
2019-03-27T13:51:10.296Z,4.20
2019-03-27T13:53:40.306Z,4.07
2019-03-27T13:56:10.276Z,4.00
2019-03-27T13:58:40.239Z,4.47
2019-03-27T14:01:12.951Z,4.60
2019-03-27T14:03:42.304Z,4.90
2019-03-27T14:06:12.195Z,4.30
2019-03-27T14:08:42.162Z,4.50
2019-03-27T14:11:12.100Z,4.80
2019-03-27T14:13:43.439Z,4.67
2019-03-27T14:16:13.679Z,5.03
2019-03-27T14:18:43.646Z,4.70
2019-03-27T14:21:13.569Z,4.63
2019-03-27T14:23:43.516Z,5.60
2019-03-27T14:26:13.391Z,4.97
2019-03-27T14:28:43.400Z,5.40
2019-03-27T14:31:13.754Z,5.83
2019-03-27T14:33:43.696Z,4.87
2019-03-27T14:36:13.702Z,5.20
2019-03-27T14:38:43.704Z,5.00
2019-03-27T14:41:14.150Z,5.33
2019-03-27T14:43:44.042Z,5.17
2019-03-27T14:46:14.091Z,5.13
2019-03-27T14:48:44.199Z,5.60
2019-03-27T14:51:14.134Z,6.03
2019-03-27T14:53:44.114Z,5.60
2019-03-27T14:56:14.014Z,5.20
2019-03-27T14:58:44.352Z,5.03
2019-03-27T15:01:14.271Z,4.97
2019-03-27T15:03:44.521Z,5.37
2019-03-27T15:06:14.390Z,5.57
2019-03-27T15:08:44.321Z,5.77
2019-03-27T15:11:14.264Z,5.20
2019-03-27T15:13:44.204Z,5.77
2019-03-27T15:16:14.206Z,6.03
2019-03-27T15:18:44.172Z,6.43
2019-03-27T15:21:14.034Z,5.77
2019-03-27T15:23:43.994Z,6.37
2019-03-27T15:26:13.984Z,7.10
2019-03-27T15:28:44.154Z,7.90
2019-03-27T15:31:20.382Z,7.00
2019-03-27T15:33:45.771Z,6.70
2019-03-27T15:36:15.730Z,6.40
2019-03-27T15:38:45.740Z,6.73
2019-03-27T15:41:15.630Z,7.00
2019-03-27T15:43:45.552Z,7.03
2019-03-27T15:46:15.465Z,6.87
2019-03-27T15:48:45.381Z,6.77
2019-03-27T15:51:15.345Z,6.97
2019-03-27T15:53:47.338Z,6.70
2019-03-27T15:56:16.917Z,6.87
2019-03-27T15:58:46.872Z,6.50
2019-03-27T16:01:16.874Z,6.93
2019-03-27T16:03:46.819Z,6.67
2019-03-27T16:06:16.823Z,6.63
2019-03-27T16:08:46.928Z,6.67
2019-03-27T16:11:16.837Z,6.27
2019-03-27T16:13:46.755Z,6.43
2019-03-27T16:16:16.765Z,5.97
2019-03-27T16:18:46.717Z,5.87
2019-03-27T16:21:17.406Z,5.40
2019-03-27T16:23:48.165Z,5.73
2019-03-27T16:26:18.523Z,5.20
2019-03-27T16:28:48.465Z,5.00
2019-03-27T16:31:18.414Z,4.90
2019-03-27T16:33:48.675Z,5.10
2019-03-27T16:36:19.059Z,5.00
2019-03-27T16:38:48.982Z,5.07
2019-03-27T16:41:18.979Z,4.17
2019-03-27T16:43:48.921Z,4.90
2019-03-27T16:46:19.102Z,4.73
2019-03-27T16:48:49.058Z,4.60
2019-03-27T16:51:18.914Z,5.30
2019-03-27T16:53:48.977Z,4.27
2019-03-27T16:56:19.066Z,5.13
2019-03-27T16:58:49.097Z,4.40
2019-03-27T17:01:19.495Z,4.33
2019-03-27T17:03:49.411Z,4.00
2019-03-27T17:06:19.736Z,4.00
2019-03-27T17:08:49.690Z,4.20
2019-03-27T17:11:19.737Z,4.30
2019-03-27T17:13:49.667Z,4.40
2019-03-27T17:16:19.535Z,4.13
2019-03-27T17:18:49.433Z,4.30
2019-03-27T17:21:19.797Z,4.40
2019-03-27T17:23:49.946Z,4.30
2019-03-27T17:26:19.861Z,4.43
2019-03-27T17:28:49.807Z,5.67
2019-03-27T17:31:19.789Z,5.00
2019-03-27T17:33:49.693Z,4.53
2019-03-27T17:36:19.733Z,5.33
2019-03-27T17:38:49.680Z,4.60
2019-03-27T17:41:19.603Z,4.80
2019-03-27T17:43:49.499Z,4.80
2019-03-27T17:46:19.489Z,4.40
2019-03-27T17:48:49.382Z,4.60
2019-03-27T17:51:19.355Z,4.27
2019-03-27T17:53:49.424Z,4.80
2019-03-27T17:56:19.317Z,4.57
2019-03-27T17:58:49.171Z,4.77
2019-03-27T18:01:19.070Z,4.60
2019-03-27T18:03:48.938Z,4.57
2019-03-27T18:06:18.899Z,5.00
2019-03-27T18:08:49.072Z,4.40
2019-03-27T18:11:19.481Z,5.00
2019-03-27T18:13:49.376Z,5.03
2019-03-27T18:16:19.342Z,5.20
2019-03-27T18:18:49.263Z,4.57
2019-03-27T18:21:21.260Z,4.23
2019-03-27T18:23:52.067Z,4.30
2019-03-27T18:26:22.095Z,4.37
2019-03-27T18:28:52.046Z,4.43
2019-03-27T18:31:22.011Z,4.20
2019-03-27T18:33:51.951Z,5.07
2019-03-27T18:36:21.874Z,4.57
2019-03-27T18:38:51.819Z,5.13
2019-03-27T18:41:21.856Z,5.27
2019-03-27T18:43:52.479Z,5.17
2019-03-27T18:46:22.361Z,5.40
2019-03-27T18:48:52.306Z,5.17
2019-03-27T18:51:22.271Z,5.50
2019-03-27T18:53:59.550Z,5.73
2019-03-27T18:56:23.736Z,5.33
2019-03-27T18:58:53.599Z,5.43
2019-03-27T19:01:23.500Z,5.90
2019-03-27T19:03:53.412Z,6.73
2019-03-27T19:06:23.424Z,6.67
2019-03-27T19:08:53.297Z,7.47
2019-03-27T19:11:23.261Z,6.33
2019-03-27T19:13:53.291Z,6.40
2019-03-27T19:16:42.080Z,6.30
2019-03-27T19:19:12.082Z,6.33
2019-03-27T19:21:42.055Z,5.50
2019-03-27T19:24:16.354Z,5.30
2019-03-27T19:26:43.599Z,4.73
2019-03-27T19:29:13.741Z,4.90
2019-03-27T19:31:43.975Z,5.33
2019-03-27T19:34:14.308Z,4.73
2019-03-27T19:36:44.565Z,4.97
2019-03-27T19:39:14.523Z,5.00
2019-03-27T19:41:44.496Z,4.30
2019-03-27T19:44:14.436Z,5.53
2019-03-27T19:46:44.401Z,4.60
2019-03-27T19:49:14.929Z,4.73
2019-03-27T19:51:44.909Z,4.20
2019-03-27T19:54:26.595Z,5.10
2019-03-27T19:56:46.718Z,5.03
2019-03-27T19:59:16.684Z,4.90
2019-03-27T20:01:46.523Z,5.30
2019-03-27T20:04:16.752Z,4.47
2019-03-27T20:06:46.637Z,4.43
2019-03-27T20:09:16.615Z,4.40
2019-03-27T20:11:46.638Z,4.07
2019-03-27T20:14:17.112Z,4.80
2019-03-27T20:16:47.121Z,4.77
2019-03-27T20:19:17.063Z,4.90
2019-03-27T20:21:46.952Z,4.53
2019-03-27T20:24:16.824Z,4.90
2019-03-27T20:26:46.796Z,5.23
2019-03-27T20:29:16.757Z,4.87
2019-03-27T20:31:46.693Z,4.87
2019-03-27T20:34:16.618Z,5.60
2019-03-27T20:36:46.537Z,4.20
2019-03-27T20:39:16.492Z,4.37
2019-03-27T20:41:46.401Z,4.40
2019-03-27T20:44:16.303Z,4.87
2019-03-27T20:46:46.346Z,4.37
2019-03-27T20:49:16.364Z,4.10
2019-03-27T20:51:46.396Z,4.10
2019-03-27T20:54:16.289Z,4.03
2019-03-27T20:56:46.276Z,3.77
2019-03-27T20:59:18.332Z,4.47
2019-03-27T21:01:47.802Z,3.90
2019-03-27T21:04:17.689Z,4.40
2019-03-27T21:06:47.651Z,4.10
2019-03-27T21:09:18.256Z,4.50
2019-03-27T21:11:48.154Z,4.37
2019-03-27T21:14:20.277Z,4.53
2019-03-27T21:16:50.424Z,4.57
2019-03-27T21:19:23.806Z,4.63
2019-03-27T21:21:53.785Z,4.30
2019-03-27T21:24:23.775Z,4.13
2019-03-27T21:26:53.952Z,4.73
2019-03-27T21:29:23.997Z,4.17
2019-03-27T21:31:54.071Z,4.50
2019-03-27T21:34:24.061Z,4.77
2019-03-27T21:36:54.069Z,4.57
2019-03-27T21:39:25.939Z,4.43
2019-03-27T21:41:56.801Z,4.60
2019-03-27T21:44:26.782Z,4.90
2019-03-27T21:46:57.075Z,4.67
2019-03-27T21:49:27.151Z,3.90
2019-03-27T21:51:57.511Z,4.73
2019-03-27T21:54:27.839Z,4.23
2019-03-27T21:56:57.835Z,4.80
2019-03-27T21:59:27.786Z,4.10
2019-03-27T22:01:58.145Z,4.23
2019-03-27T22:04:28.348Z,4.70
2019-03-27T22:06:58.353Z,5.07
2019-03-27T22:09:29.075Z,4.10
2019-03-27T22:11:59.041Z,4.53
2019-03-27T22:14:29.040Z,4.43
2019-03-27T22:16:58.997Z,4.20
2019-03-27T22:19:29.111Z,4.33
2019-03-27T22:21:59.165Z,4.53
2019-03-27T22:24:30.203Z,4.80
2019-03-27T22:27:00.188Z,3.63
2019-03-27T22:29:30.163Z,4.00
2019-03-27T22:32:00.175Z,4.10
2019-03-27T22:34:30.119Z,4.50
2019-03-27T22:37:00.139Z,4.83
2019-03-27T22:39:30.075Z,4.70
2019-03-27T22:42:00.071Z,4.87
2019-03-27T22:44:30.029Z,4.60
2019-03-27T22:47:00.011Z,5.00
2019-03-27T22:49:29.973Z,4.30
2019-03-27T22:52:00.310Z,5.20
2019-03-27T22:54:30.323Z,5.47
2019-03-27T22:57:00.501Z,4.13
2019-03-27T22:59:30.468Z,4.83
2019-03-27T23:02:00.493Z,4.50
2019-03-27T23:04:30.478Z,5.57
2019-03-27T23:07:00.783Z,5.17
2019-03-27T23:09:30.812Z,5.43
2019-03-27T23:12:01.147Z,5.23
2019-03-27T23:14:31.179Z,5.60
2019-03-27T23:17:01.134Z,5.63
2019-03-27T23:19:31.148Z,5.00
2019-03-27T23:22:01.165Z,5.20
2019-03-27T23:24:31.168Z,5.10
2019-03-27T23:27:01.152Z,5.70
2019-03-27T23:29:31.200Z,5.60
2019-03-27T23:32:01.314Z,6.10
2019-03-27T23:34:31.321Z,5.37
2019-03-27T23:37:01.628Z,5.53
2019-03-27T23:39:31.590Z,5.57
2019-03-27T23:42:01.666Z,6.17
2019-03-27T23:44:31.690Z,5.87
2019-03-27T23:47:01.730Z,5.77
2019-03-27T23:49:31.693Z,5.53
2019-03-27T23:52:01.757Z,5.97
2019-03-27T23:54:31.805Z,6.43
2019-03-27T23:57:01.840Z,6.30
2019-03-27T23:59:31.818Z,6.10
